Time;durP1;ratioP1;P1;durP2;ratioP2;P2;SDS_P1;SDS_P2;PMS_P1;PMS_P2;Temp;Humidity;BMP_temperature;BMP_pressure;BME280_temperature;BME280_humidity;BME280_pressure;Samples;Min_cycle;Max_cycle;Signal;HPM_P1;HPM_P2
2023/03/29 00:00:19;;;;;;;6.30;4.90;;;;;;;;;;4985650;28;20577;-44
2023/03/29 00:02:49;;;;;;;5.28;4.43;;;;;;;;;;4983862;28;20221;-45
2023/03/29 00:05:16;;;;;;;8.65;4.85;;;;;;;;;;4985617;28;20196;-43
2023/03/29 00:07:42;;;;;;;12.40;5.38;;;;;;;;;;4981675;28;20185;-44
2023/03/29 00:10:09;;;;;;;5.80;4.63;;;;;;;;;;4977620;28;20264;-45
2023/03/29 00:12:38;;;;;;;7.03;4.75;;;;;;;;;;4985932;28;20411;-43
2023/03/29 00:15:05;;;;;;;7.50;4.55;;;;;;;;;;4981457;28;20173;-43
2023/03/29 00:17:31;;;;;;;7.00;5.88;;;;;;;;;;4982790;28;20165;-44
2023/03/29 00:19:57;;;;;;;10.23;4.23;;;;;;;;;;4982308;28;20185;-44
2023/03/29 00:22:23;;;;;;;6.85;4.38;;;;;;;;;;4982769;28;20431;-44
2023/03/29 00:24:52;;;;;;;9.52;4.45;;;;;;;;;;4985392;28;20343;-44
2023/03/29 00:27:18;;;;;;;7.60;5.05;;;;;;;;;;4982233;28;20657;-44
2023/03/29 00:29:44;;;;;;;6.00;4.43;;;;;;;;;;4985138;28;20209;-44
2023/03/29 00:32:10;;;;;;;10.70;5.33;;;;;;;;;;4980364;28;20410;-44
2023/03/29 00:34:36;;;;;;;7.22;5.00;;;;;;;;;;4984640;28;20405;-44
2023/03/29 00:37:07;;;;;;;9.73;5.00;;;;;;;;;;4981906;28;20185;-45
2023/03/29 00:39:33;;;;;;;9.60;4.97;;;;;;;;;;4981871;28;20433;-43
2023/03/29 00:41:59;;;;;;;6.87;4.30;;;;;;;;;;4982195;28;20196;-43
2023/03/29 00:44:44;;;;;;;7.07;4.25;;;;;;;;;;4985014;28;20448;-43
2023/03/29 00:47:10;;;;;;;7.70;4.82;;;;;;;;;;4975721;28;20178;-43
2023/03/29 00:49:36;;;;;;;7.47;4.63;;;;;;;;;;4973269;28;20239;-43
2023/03/29 00:52:02;;;;;;;7.43;4.00;;;;;;;;;;4973675;28;20170;-43
2023/03/29 00:54:28;;;;;;;5.20;4.23;;;;;;;;;;4956714;28;20177;-43
2023/03/29 00:56:54;;;;;;;5.80;5.00;;;;;;;;;;4977919;28;20914;-43
2023/03/29 00:59:23;;;;;;;6.45;4.30;;;;;;;;;;4976342;28;20546;-43
2023/03/29 01:01:56;;;;;;;5.65;4.80;;;;;;;;;;4974825;28;20193;-44
2023/03/29 01:04:28;;;;;;;5.80;3.75;;;;;;;;;;4965189;28;20236;-44
2023/03/29 01:07:00;;;;;;;4.97;4.10;;;;;;;;;;4985245;28;20576;-45
2023/03/29 01:09:29;;;;;;;4.50;4.10;;;;;;;;;;4984928;28;20276;-43
2023/03/29 01:11:56;;;;;;;4.93;4.28;;;;;;;;;;4973387;28;20542;-43
2023/03/29 01:14:25;;;;;;;10.25;7.93;;;;;;;;;;4958207;28;20165;-43
2023/03/29 01:16:52;;;;;;;9.13;6.10;;;;;;;;;;4980366;28;20615;-44
2023/03/29 01:19:20;;;;;;;7.30;5.35;;;;;;;;;;4981403;28;20542;-44
2023/03/29 01:21:56;;;;;;;5.47;4.60;;;;;;;;;;4986376;28;20184;-46
2023/03/29 01:24:29;;;;;;;5.50;4.43;;;;;;;;;;4984929;28;20662;-46
2023/03/29 01:27:14;;;;;;;5.25;4.05;;;;;;;;;;4984245;28;20546;-46
2023/03/29 01:29:56;;;;;;;5.88;4.47;;;;;;;;;;4976656;28;20320;-45
2023/03/29 01:32:36;;;;;;;5.85;4.28;;;;;;;;;;4968754;28;20178;-45
2023/03/29 01:35:17;;;;;;;5.53;4.25;;;;;;;;;;4985175;28;20184;-46
2023/03/29 01:37:48;;;;;;;7.10;4.03;;;;;;;;;;4982921;28;20447;-45
2023/03/29 01:40:14;;;;;;;6.20;4.72;;;;;;;;;;4990475;28;20403;-46
2023/03/29 01:42:42;;;;;;;7.25;3.85;;;;;;;;;;4985554;28;20176;-45
2023/03/29 01:45:19;;;;;;;7.40;5.28;;;;;;;;;;4979709;28;20212;-45
2023/03/29 01:48:12;;;;;;;9.55;4.45;;;;;;;;;;4977040;28;20201;-45
2023/03/29 01:50:46;;;;;;;4.60;3.60;;;;;;;;;;4967446;28;20188;-45
2023/03/29 01:53:19;;;;;;;8.05;4.75;;;;;;;;;;4985119;28;20212;-47
2023/03/29 01:55:53;;;;;;;7.68;4.45;;;;;;;;;;4985073;28;20184;-45
2023/03/29 01:58:21;;;;;;;5.22;3.95;;;;;;;;;;4989174;28;20204;-47
2023/03/29 02:00:48;;;;;;;7.00;4.37;;;;;;;;;;4987387;28;20189;-46
2023/03/29 02:03:16;;;;;;;6.00;3.70;;;;;;;;;;4989004;28;20470;-46
2023/03/29 02:05:42;;;;;;;3.45;3.15;;;;;;;;;;4985525;28;20175;-46
2023/03/29 02:08:10;;;;;;;9.07;4.85;;;;;;;;;;4988314;28;20285;-45
2023/03/29 02:10:37;;;;;;;4.13;3.72;;;;;;;;;;4989224;28;20476;-47
2023/03/29 02:13:04;;;;;;;9.15;4.22;;;;;;;;;;4985387;28;20265;-45
2023/03/29 02:15:30;;;;;;;5.40;4.30;;;;;;;;;;4987256;28;20546;-46
2023/03/29 02:17:56;;;;;;;6.07;4.37;;;;;;;;;;4985566;28;20197;-45
2023/03/29 02:20:33;;;;;;;8.05;4.32;;;;;;;;;;4987521;28;20401;-46
2023/03/29 02:23:03;;;;;;;4.47;3.70;;;;;;;;;;4987312;28;20233;-45
2023/03/29 02:25:29;;;;;;;4.85;3.72;;;;;;;;;;4989077;28;20170;-45
2023/03/29 02:27:55;;;;;;;4.50;3.77;;;;;;;;;;4989458;28;20200;-45
2023/03/29 02:30:22;;;;;;;4.90;4.18;;;;;;;;;;4983439;28;20896;-47
2023/03/29 02:32:54;;;;;;;4.07;3.22;;;;;;;;;;4988142;28;20178;-46
2023/03/29 02:35:22;;;;;;;4.60;3.67;;;;;;;;;;4990378;28;20168;-46
2023/03/29 02:37:50;;;;;;;7.07;4.32;;;;;;;;;;4988386;28;20432;-46
2023/03/29 02:40:16;;;;;;;5.53;4.13;;;;;;;;;;4989926;28;20685;-45
2023/03/29 02:42:44;;;;;;;5.70;4.40;;;;;;;;;;4987566;28;20414;-44
2023/03/29 02:45:11;;;;;;;6.95;4.65;;;;;;;;;;4985193;28;20464;-45
2023/03/29 02:47:42;;;;;;;7.45;5.95;;;;;;;;;;4985588;28;20165;-45
2023/03/29 02:50:08;;;;;;;14.38;4.72;;;;;;;;;;4987786;28;20283;-45
2023/03/29 02:52:35;;;;;;;8.15;4.20;;;;;;;;;;4988612;28;20173;-45
2023/03/29 02:55:02;;;;;;;6.70;4.38;;;;;;;;;;4984726;28;20606;-46
2023/03/29 02:57:30;;;;;;;7.07;5.32;;;;;;;;;;4987137;28;20563;-47
2023/03/29 02:59:57;;;;;;;5.03;4.05;;;;;;;;;;4985192;28;20174;-46
2023/03/29 03:02:26;;;;;;;8.35;4.50;;;;;;;;;;4978934;28;20182;-45
2023/03/29 03:04:52;;;;;;;7.30;4.30;;;;;;;;;;4985895;28;20248;-45
2023/03/29 03:07:19;;;;;;;8.93;4.20;;;;;;;;;;4989107;28;20405;-45
2023/03/29 03:09:46;;;;;;;5.45;4.18;;;;;;;;;;4988376;28;20523;-46
2023/03/29 03:12:12;;;;;;;7.93;5.37;;;;;;;;;;4984084;28;20613;-45
2023/03/29 03:14:39;;;;;;;6.43;4.57;;;;;;;;;;4984587;28;20415;-47
2023/03/29 03:17:05;;;;;;;6.20;4.57;;;;;;;;;;4985364;28;20191;-46
2023/03/29 03:19:31;;;;;;;5.07;4.10;;;;;;;;;;4989099;28;20200;-45
2023/03/29 03:21:57;;;;;;;5.30;3.70;;;;;;;;;;4986445;28;20444;-45
2023/03/29 03:24:23;;;;;;;5.90;4.60;;;;;;;;;;4989677;28;20466;-46
2023/03/29 03:26:49;;;;;;;7.50;5.50;;;;;;;;;;4987418;28;20416;-45
2023/03/29 03:29:15;;;;;;;6.80;4.30;;;;;;;;;;4981967;28;20937;-46
2023/03/29 03:31:41;;;;;;;5.38;4.35;;;;;;;;;;4989693;28;20404;-47
2023/03/29 03:34:07;;;;;;;9.95;4.68;;;;;;;;;;4987534;28;20174;-47
2023/03/29 03:36:34;;;;;;;7.07;4.33;;;;;;;;;;4988741;28;20215;-45
2023/03/29 03:39:01;;;;;;;9.17;4.43;;;;;;;;;;4985662;28;20433;-47
2023/03/29 03:41:28;;;;;;;5.68;4.25;;;;;;;;;;4986925;28;20481;-45
2023/03/29 03:43:54;;;;;;;6.80;5.03;;;;;;;;;;4985790;28;20236;-45
2023/03/29 03:46:20;;;;;;;4.22;3.83;;;;;;;;;;4979632;28;20453;-45
2023/03/29 03:48:46;;;;;;;14.43;3.67;;;;;;;;;;4975456;28;20194;-46
2023/03/29 03:51:13;;;;;;;5.63;4.07;;;;;;;;;;4977568;28;20890;-45
2023/03/29 03:53:38;;;;;;;5.50;4.07;;;;;;;;;;4977362;28;20445;-45
2023/03/29 03:56:07;;;;;;;4.60;3.97;;;;;;;;;;4976634;28;20413;-45
2023/03/29 03:58:37;;;;;;;6.40;4.30;;;;;;;;;;4976087;28;20438;-45
2023/03/29 04:01:04;;;;;;;5.10;4.40;;;;;;;;;;4977683;28;20438;-45
2023/03/29 04:03:30;;;;;;;5.47;4.17;;;;;;;;;;4983650;28;20499;-44
2023/03/29 04:05:59;;;;;;;6.20;5.40;;;;;;;;;;4982567;28;20410;-45
2023/03/29 04:08:25;;;;;;;4.90;4.10;;;;;;;;;;4976997;28;20289;-45
2023/03/29 04:10:55;;;;;;;6.03;4.97;;;;;;;;;;4982228;28;20453;-45
2023/03/29 04:13:21;;;;;;;6.43;3.93;;;;;;;;;;4988162;28;20415;-45
2023/03/29 04:15:54;;;;;;;6.85;4.70;;;;;;;;;;4984091;28;20438;-45
2023/03/29 04:18:21;;;;;;;6.13;4.20;;;;;;;;;;4978426;28;20239;-45
2023/03/29 04:20:47;;;;;;;5.80;4.40;;;;;;;;;;4982799;28;20445;-45
2023/03/29 04:23:14;;;;;;;4.93;4.13;;;;;;;;;;4984252;28;20461;-45
2023/03/29 04:25:40;;;;;;;12.80;4.70;;;;;;;;;;4985142;28;20410;-45
2023/03/29 04:28:06;;;;;;;7.10;5.43;;;;;;;;;;4983052;28;20433;-45
2023/03/29 04:30:32;;;;;;;5.57;4.45;;;;;;;;;;4984726;28;20429;-45
2023/03/29 04:32:58;;;;;;;6.60;4.00;;;;;;;;;;4984315;28;20185;-45
2023/03/29 04:35:24;;;;;;;8.20;4.90;;;;;;;;;;4978575;28;20420;-45
2023/03/29 04:37:53;;;;;;;7.20;5.13;;;;;;;;;;4984859;28;20446;-52
2023/03/29 04:40:19;;;;;;;8.17;4.67;;;;;;;;;;4982616;28;20420;-45
2023/03/29 04:42:46;;;;;;;7.25;5.68;;;;;;;;;;4982626;28;20504;-44
2023/03/29 04:45:12;;;;;;;12.80;7.18;;;;;;;;;;4980528;28;20194;-44
2023/03/29 04:47:39;;;;;;;14.10;9.73;;;;;;;;;;4978024;28;20601;-44
2023/03/29 04:50:07;;;;;;;7.30;5.37;;;;;;;;;;4982204;28;20420;-43
2023/03/29 04:52:33;;;;;;;7.15;4.55;;;;;;;;;;4981596;28;20408;-43
2023/03/29 04:55:00;;;;;;;6.47;4.83;;;;;;;;;;4987050;28;20185;-44
2023/03/29 04:57:26;;;;;;;11.63;6.55;;;;;;;;;;4981184;28;20412;-43
2023/03/29 04:59:52;;;;;;;6.07;4.20;;;;;;;;;;4979802;28;20646;-44
2023/03/29 05:02:18;;;;;;;9.10;4.33;;;;;;;;;;4982367;28;20165;-44
2023/03/29 05:04:44;;;;;;;4.87;4.37;;;;;;;;;;4981391;28;20536;-43
2023/03/29 05:07:11;;;;;;;6.20;3.90;;;;;;;;;;4983106;28;20409;-43
2023/03/29 05:09:37;;;;;;;8.60;4.67;;;;;;;;;;4984454;28;20429;-44
2023/03/29 05:12:04;;;;;;;5.80;3.93;;;;;;;;;;4985671;28;20483;-45
2023/03/29 05:14:30;;;;;;;7.85;4.55;;;;;;;;;;4980231;28;20915;-44
2023/03/29 05:16:56;;;;;;;13.50;4.20;;;;;;;;;;4976456;28;20179;-44
2023/03/29 05:19:22;;;;;;;5.07;4.20;;;;;;;;;;4984150;28;20863;-45
2023/03/29 05:21:51;;;;;;;7.60;4.10;;;;;;;;;;4983307;28;20407;-43
2023/03/29 05:24:18;;;;;;;6.27;4.30;;;;;;;;;;4983875;28;20460;-44
2023/03/29 05:26:46;;;;;;;4.00;3.60;;;;;;;;;;4982266;28;20412;-45
2023/03/29 05:29:12;;;;;;;6.00;4.13;;;;;;;;;;4983342;28;20507;-43
2023/03/29 05:31:38;;;;;;;12.67;5.00;;;;;;;;;;4979357;28;20435;-43
2023/03/29 05:34:05;;;;;;;6.50;5.30;;;;;;;;;;4983147;28;20417;-44
2023/03/29 05:36:31;;;;;;;9.10;5.27;;;;;;;;;;4983411;28;20412;-43
2023/03/29 05:38:58;;;;;;;6.43;5.70;;;;;;;;;;4980106;28;20932;-44
2023/03/29 05:41:24;;;;;;;10.05;5.68;;;;;;;;;;4983054;28;20512;-44
2023/03/29 05:43:50;;;;;;;6.50;5.47;;;;;;;;;;4980908;28;20284;-44
2023/03/29 05:46:16;;;;;;;10.05;7.43;;;;;;;;;;4980840;28;20928;-45
2023/03/29 05:48:42;;;;;;;9.50;6.00;;;;;;;;;;4979696;28;20202;-44
2023/03/29 05:51:08;;;;;;;10.90;5.60;;;;;;;;;;4986596;28;20792;-43
2023/03/29 05:53:34;;;;;;;7.53;6.07;;;;;;;;;;4982360;28;20511;-45
2023/03/29 05:56:01;;;;;;;7.77;5.73;;;;;;;;;;4976295;28;20545;-45
2023/03/29 05:58:27;;;;;;;12.98;6.22;;;;;;;;;;4980758;28;20439;-44
2023/03/29 06:00:53;;;;;;;10.52;6.97;;;;;;;;;;4980699;28;20230;-44
2023/03/29 06:03:23;;;;;;;9.63;6.37;;;;;;;;;;4983728;28;20193;-44
2023/03/29 06:05:55;;;;;;;16.52;6.93;;;;;;;;;;4981729;28;20405;-44
2023/03/29 06:08:22;;;;;;;10.52;7.05;;;;;;;;;;4975325;28;20220;-45
2023/03/29 06:10:49;;;;;;;9.83;7.43;;;;;;;;;;4980795;28;20256;-45
2023/03/29 06:13:15;;;;;;;10.83;7.20;;;;;;;;;;4976970;28;20830;-43
2023/03/29 06:15:41;;;;;;;10.10;6.83;;;;;;;;;;4983859;28;20432;-44
2023/03/29 06:18:08;;;;;;;15.57;9.33;;;;;;;;;;4973453;28;20984;-44
2023/03/29 06:20:34;;;;;;;10.37;7.27;;;;;;;;;;4982761;28;20431;-45
2023/03/29 06:23:00;;;;;;;12.17;7.83;;;;;;;;;;4980671;28;20417;-44
2023/03/29 06:25:26;;;;;;;9.90;6.80;;;;;;;;;;4980163;28;20485;-43
2023/03/29 06:27:53;;;;;;;15.60;7.40;;;;;;;;;;4982894;28;20514;-44
2023/03/29 06:30:20;;;;;;;9.57;6.37;;;;;;;;;;4977594;28;20443;-43
2023/03/29 06:32:48;;;;;;;10.03;7.60;;;;;;;;;;4982924;28;20487;-44
2023/03/29 06:35:14;;;;;;;7.20;6.23;;;;;;;;;;4977924;28;20423;-44
2023/03/29 06:37:48;;;;;;;10.23;7.27;;;;;;;;;;4979609;28;20414;-44
2023/03/29 06:40:16;;;;;;;8.93;6.40;;;;;;;;;;4980753;28;20429;-44
2023/03/29 06:42:42;;;;;;;8.33;6.33;;;;;;;;;;4981691;28;20408;-44
2023/03/29 06:45:09;;;;;;;11.50;7.90;;;;;;;;;;4984494;28;20539;-45
2023/03/29 06:47:35;;;;;;;11.53;7.60;;;;;;;;;;4986096;28;20891;-44
2023/03/29 06:50:01;;;;;;;12.33;5.97;;;;;;;;;;4983887;28;20779;-44
2023/03/29 06:52:27;;;;;;;11.23;5.77;;;;;;;;;;4982946;28;20424;-44
2023/03/29 06:54:53;;;;;;;10.00;6.27;;;;;;;;;;4980546;28;20405;-44
2023/03/29 06:57:19;;;;;;;7.93;6.50;;;;;;;;;;4986131;28;20421;-46
2023/03/29 06:59:46;;;;;;;8.00;5.93;;;;;;;;;;4983961;28;20440;-43
2023/03/29 07:02:12;;;;;;;10.67;6.67;;;;;;;;;;4986091;28;20509;-43
2023/03/29 07:04:40;;;;;;;6.97;5.20;;;;;;;;;;4971189;28;20469;-44
2023/03/29 07:07:10;;;;;;;8.47;6.77;;;;;;;;;;4983166;28;20427;-44
2023/03/29 07:09:38;;;;;;;9.80;5.73;;;;;;;;;;4976588;28;20430;-44
2023/03/29 07:12:05;;;;;;;8.57;6.13;;;;;;;;;;4991352;28;20418;-44
2023/03/29 07:14:32;;;;;;;7.10;5.13;;;;;;;;;;4986039;28;20447;-44
2023/03/29 07:16:58;;;;;;;6.20;5.60;;;;;;;;;;4983343;28;20430;-44
2023/03/29 07:19:26;;;;;;;9.80;6.60;;;;;;;;;;4982771;28;20448;-44
2023/03/29 07:21:53;;;;;;;8.37;5.87;;;;;;;;;;4987525;28;20473;-44
2023/03/29 07:24:19;;;;;;;9.77;6.03;;;;;;;;;;4983464;28;20474;-46
2023/03/29 07:26:45;;;;;;;9.77;5.77;;;;;;;;;;4982788;28;20442;-44
2023/03/29 07:29:12;;;;;;;7.50;5.80;;;;;;;;;;4988811;28;20430;-45
2023/03/29 07:31:39;;;;;;;8.50;5.53;;;;;;;;;;4984922;28;20414;-44
2023/03/29 07:34:09;;;;;;;11.17;6.43;;;;;;;;;;4981164;28;20427;-45
2023/03/29 07:36:35;;;;;;;12.57;6.33;;;;;;;;;;4987342;28;20427;-44
2023/03/29 07:39:02;;;;;;;9.03;5.67;;;;;;;;;;4983173;28;20554;-44
2023/03/29 07:41:28;;;;;;;16.03;5.10;;;;;;;;;;4992422;28;20950;-44
2023/03/29 07:43:54;;;;;;;8.63;4.93;;;;;;;;;;4984537;28;20477;-45
2023/03/29 07:46:20;;;;;;;9.03;6.43;;;;;;;;;;4986754;28;20446;-45
2023/03/29 07:48:46;;;;;;;8.20;5.30;;;;;;;;;;4979666;28;20456;-44
2023/03/29 07:51:12;;;;;;;11.47;5.13;;;;;;;;;;4984188;28;20957;-44
2023/03/29 07:53:38;;;;;;;7.90;4.80;;;;;;;;;;4985267;28;20491;-44
2023/03/29 07:56:04;;;;;;;7.50;4.87;;;;;;;;;;4977932;28;20503;-44
2023/03/29 07:58:31;;;;;;;7.97;5.23;;;;;;;;;;4985629;28;20825;-43
2023/03/29 08:00:59;;;;;;;5.83;4.93;;;;;;;;;;4989793;28;20412;-45
2023/03/29 08:03:26;;;;;;;8.57;5.07;;;;;;;;;;4981156;28;20456;-44
2023/03/29 08:05:52;;;;;;;9.30;5.40;;;;;;;;;;4983067;28;20818;-44
2023/03/29 08:08:18;;;;;;;9.70;5.53;;;;;;;;;;4981698;28;20440;-45
2023/03/29 08:10:44;;;;;;;7.50;5.60;;;;;;;;;;4973177;28;20421;-45
2023/03/29 08:13:10;;;;;;;6.63;4.53;;;;;;;;;;4984058;28;20413;-45
2023/03/29 08:15:38;;;;;;;6.57;4.93;;;;;;;;;;4980411;28;20844;-44
2023/03/29 08:18:04;;;;;;;7.17;6.03;;;;;;;;;;4982712;28;20518;-44
2023/03/29 08:20:31;;;;;;;8.03;5.27;;;;;;;;;;4974160;28;20428;-44
2023/03/29 08:22:57;;;;;;;11.77;4.80;;;;;;;;;;4981049;28;20835;-45
2023/03/29 08:25:23;;;;;;;8.77;4.50;;;;;;;;;;4987951;28;20564;-45
2023/03/29 08:27:49;;;;;;;8.77;4.93;;;;;;;;;;4985275;28;20439;-44
2023/03/29 08:30:15;;;;;;;10.87;5.47;;;;;;;;;;4978747;28;20423;-44
2023/03/29 08:32:41;;;;;;;6.13;4.30;;;;;;;;;;4981765;28;20416;-44
2023/03/29 08:35:08;;;;;;;13.73;4.60;;;;;;;;;;4982994;28;20409;-44
2023/03/29 08:37:35;;;;;;;10.90;6.67;;;;;;;;;;4981060;28;20398;-44
2023/03/29 08:40:01;;;;;;;7.13;4.40;;;;;;;;;;4982245;28;20431;-44
2023/03/29 08:42:36;;;;;;;5.77;4.30;;;;;;;;;;4982435;28;20428;-43
2023/03/29 08:45:16;;;;;;;8.40;5.33;;;;;;;;;;4984790;28;20463;-44
2023/03/29 08:47:42;;;;;;;7.90;5.17;;;;;;;;;;4975715;28;20409;-43
2023/03/29 08:50:09;;;;;;;10.93;4.60;;;;;;;;;;4981777;28;20955;-44
2023/03/29 08:52:37;;;;;;;5.60;4.30;;;;;;;;;;4979741;28;20437;-44
2023/03/29 08:55:07;;;;;;;7.20;5.20;;;;;;;;;;4980052;28;20463;-44
2023/03/29 08:57:39;;;;;;;8.30;6.73;;;;;;;;;;4980538;28;20413;-44
2023/03/29 09:00:06;;;;;;;7.20;4.20;;;;;;;;;;4982409;28;20520;-44
2023/03/29 09:02:34;;;;;;;9.30;4.70;;;;;;;;;;4981008;28;20839;-45
2023/03/29 09:05:33;;;;;;;6.27;4.93;;;;;;;;;;4980352;28;20471;-44
2023/03/29 09:08:00;;;;;;;7.83;4.30;;;;;;;;;;4957705;28;20445;-45
2023/03/29 09:10:30;;;;;;;8.30;4.23;;;;;;;;;;4985545;28;20927;-44
2023/03/29 09:13:04;;;;;;;7.70;4.83;;;;;;;;;;4984354;28;20507;-44
2023/03/29 09:15:35;;;;;;;4.47;4.07;;;;;;;;;;4967307;28;20498;-44
2023/03/29 09:18:10;;;;;;;3.90;3.50;;;;;;;;;;4974174;28;20591;-44
2023/03/29 09:20:46;;;;;;;8.83;6.90;;;;;;;;;;4978959;28;20431;-44
2023/03/29 09:23:12;;;;;;;10.80;5.33;;;;;;;;;;4983232;28;20452;-44
2023/03/29 09:25:42;;;;;;;11.10;5.63;;;;;;;;;;4977867;28;20467;-44
2023/03/29 09:28:18;;;;;;;8.63;4.40;;;;;;;;;;4982192;28;20524;-45
2023/03/29 09:30:50;;;;;;;7.53;6.07;;;;;;;;;;4969843;28;20784;-44
2023/03/29 09:33:24;;;;;;;6.13;4.87;;;;;;;;;;4976430;28;20409;-45
2023/03/29 09:35:54;;;;;;;6.67;5.10;;;;;;;;;;4969430;28;20432;-44
2023/03/29 09:38:21;;;;;;;7.30;4.47;;;;;;;;;;4967169;28;20442;-44
2023/03/29 09:40:55;;;;;;;13.60;6.50;;;;;;;;;;4970939;28;20511;-45
2023/03/29 09:43:28;;;;;;;8.10;4.40;;;;;;;;;;4972649;28;20423;-44
2023/03/29 09:45:57;;;;;;;10.60;5.03;;;;;;;;;;4971999;28;20445;-44
2023/03/29 09:48:25;;;;;;;9.00;5.23;;;;;;;;;;4972112;28;20440;-44
2023/03/29 09:50:51;;;;;;;16.37;5.13;;;;;;;;;;4971296;28;20427;-44
2023/03/29 09:53:17;;;;;;;6.23;4.50;;;;;;;;;;4972057;28;20515;-43
2023/03/29 09:55:45;;;;;;;8.40;4.80;;;;;;;;;;4972767;28;20403;-44
2023/03/29 09:58:20;;;;;;;7.53;5.20;;;;;;;;;;4977863;28;20441;-44
2023/03/29 10:00:47;;;;;;;6.00;4.13;;;;;;;;;;4976898;28;20829;-44
2023/03/29 10:03:23;;;;;;;5.50;4.17;;;;;;;;;;4987067;28;20476;-44
2023/03/29 10:05:52;;;;;;;6.77;5.00;;;;;;;;;;4978291;28;20434;-44
2023/03/29 10:08:21;;;;;;;5.50;4.50;;;;;;;;;;4983097;28;20864;-44
2023/03/29 10:10:47;;;;;;;4.40;3.77;;;;;;;;;;4977866;28;20436;-44
2023/03/29 10:13:20;;;;;;;7.77;5.30;;;;;;;;;;4978745;28;20973;-44
2023/03/29 10:15:57;;;;;;;7.00;4.53;;;;;;;;;;4983933;28;20724;-45
2023/03/29 10:18:25;;;;;;;5.43;4.60;;;;;;;;;;4975480;28;20515;-44
2023/03/29 10:20:57;;;;;;;6.47;4.43;;;;;;;;;;4988222;28;20489;-44
2023/03/29 10:23:23;;;;;;;5.53;4.80;;;;;;;;;;4981006;28;20415;-44
2023/03/29 10:25:49;;;;;;;10.40;4.70;;;;;;;;;;4984205;28;20430;-44
2023/03/29 10:28:16;;;;;;;6.20;4.77;;;;;;;;;;4984495;28;20504;-44
2023/03/29 10:30:44;;;;;;;5.07;4.30;;;;;;;;;;4987560;28;20402;-45
2023/03/29 10:33:18;;;;;;;7.90;4.30;;;;;;;;;;4982525;28;20586;-44
2023/03/29 10:35:46;;;;;;;5.23;3.80;;;;;;;;;;4984788;28;20416;-44
2023/03/29 10:38:17;;;;;;;12.00;5.07;;;;;;;;;;4985408;28;20466;-46
2023/03/29 10:40:47;;;;;;;6.40;4.67;;;;;;;;;;4984045;28;20751;-45
2023/03/29 10:43:19;;;;;;;4.90;3.87;;;;;;;;;;4981904;28;20431;-46
2023/03/29 10:45:49;;;;;;;9.83;4.53;;;;;;;;;;4987079;28;20530;-46
2023/03/29 10:48:16;;;;;;;5.33;3.90;;;;;;;;;;4984083;28;20414;-46
2023/03/29 10:50:42;;;;;;;10.17;4.40;;;;;;;;;;4985051;28;20819;-46
2023/03/29 10:53:26;;;;;;;6.70;4.53;;;;;;;;;;4980886;28;20426;-45
2023/03/29 10:56:01;;;;;;;5.93;4.93;;;;;;;;;;4978480;28;20462;-45
2023/03/29 10:58:32;;;;;;;7.33;4.63;;;;;;;;;;4986153;28;20400;-46
2023/03/29 11:00:58;;;;;;;5.00;3.77;;;;;;;;;;4982407;28;20586;-45
2023/03/29 11:03:27;;;;;;;8.40;4.87;;;;;;;;;;4984461;28;20433;-46
2023/03/29 11:06:06;;;;;;;7.77;4.50;;;;;;;;;;4983239;28;20435;-46
2023/03/29 11:08:45;;;;;;;5.33;4.00;;;;;;;;;;4983174;28;20439;-46
2023/03/29 11:11:17;;;;;;;9.23;4.40;;;;;;;;;;4983181;28;20562;-46
2023/03/29 11:13:43;;;;;;;7.47;5.33;;;;;;;;;;4983223;28;20427;-46
2023/03/29 11:16:18;;;;;;;5.93;5.13;;;;;;;;;;4988265;28;20420;-46
2023/03/29 11:18:44;;;;;;;7.43;5.50;;;;;;;;;;4977893;28;20578;-47
2023/03/29 11:21:30;;;;;;;9.00;4.50;;;;;;;;;;4985075;28;20519;-46
2023/03/29 11:24:14;;;;;;;8.10;4.57;;;;;;;;;;4977003;28;20615;-46
2023/03/29 11:26:40;;;;;;;4.50;3.93;;;;;;;;;;4968929;28;20416;-46
2023/03/29 11:29:12;;;;;;;7.70;4.97;;;;;;;;;;4969661;28;20444;-47
2023/03/29 11:31:57;;;;;;;8.27;4.67;;;;;;;;;;4982271;28;20735;-48
2023/03/29 11:34:49;;;;;;;5.30;4.13;;;;;;;;;;4990005;28;20421;-46
2023/03/29 11:37:19;;;;;;;5.20;4.10;;;;;;;;;;4984124;28;20983;-47
2023/03/29 11:39:54;;;;;;;7.83;4.30;;;;;;;;;;4983457;28;20463;-48
2023/03/29 11:42:22;;;;;;;8.67;4.10;;;;;;;;;;4986667;28;20393;-47
2023/03/29 11:44:50;;;;;;;4.73;4.03;;;;;;;;;;4982759;28;20499;-43
2023/03/29 11:47:18;;;;;;;7.30;4.97;;;;;;;;;;4982280;28;20386;-44
2023/03/29 11:49:56;;;;;;;13.30;3.87;;;;;;;;;;4983467;28;20452;-46
2023/03/29 11:52:25;;;;;;;8.20;5.07;;;;;;;;;;4976102;28;20388;-44
2023/03/29 11:55:02;;;;;;;6.43;4.10;;;;;;;;;;4989098;28;20394;-44
2023/03/29 11:57:35;;;;;;;9.30;5.23;;;;;;;;;;4978292;28;20425;-44
2023/03/29 12:00:04;;;;;;;4.60;3.90;;;;;;;;;;4972938;28;20435;-44
2023/03/29 12:02:50;;;;;;;5.10;4.60;;;;;;;;;;4979188;28;20404;-44
2023/03/29 12:05:21;;;;;;;5.17;4.33;;;;;;;;;;4982199;28;20543;-44
2023/03/29 12:07:50;;;;;;;5.50;4.50;;;;;;;;;;4984484;28;20428;-48
2023/03/29 12:10:20;;;;;;;7.23;4.70;;;;;;;;;;4981176;28;20487;-44
2023/03/29 12:12:46;;;;;;;9.63;4.50;;;;;;;;;;4986417;28;20386;-45
2023/03/29 12:15:19;;;;;;;11.23;5.00;;;;;;;;;;4982642;28;20439;-45
2023/03/29 12:18:03;;;;;;;7.40;4.37;;;;;;;;;;4981407;28;20424;-44
2023/03/29 12:20:33;;;;;;;7.83;4.40;;;;;;;;;;4975136;28;20434;-44
2023/03/29 12:22:59;;;;;;;7.67;3.90;;;;;;;;;;4984950;28;20427;-45
2023/03/29 12:25:37;;;;;;;3.20;2.90;;;;;;;;;;4976797;28;20972;-45
2023/03/29 12:28:06;;;;;;;6.07;4.07;;;;;;;;;;4969593;28;20466;-44
2023/03/29 12:30:37;;;;;;;6.93;4.63;;;;;;;;;;4967580;28;20465;-44
2023/03/29 12:33:13;;;;;;;5.13;4.47;;;;;;;;;;4969643;28;20926;-46
2023/03/29 12:36:01;;;;;;;6.30;4.20;;;;;;;;;;4987105;28;20415;-43
2023/03/29 12:38:28;;;;;;;5.67;4.30;;;;;;;;;;4981726;28;20478;-44
2023/03/29 12:41:00;;;;;;;7.17;5.30;;;;;;;;;;4983128;28;20566;-44
2023/03/29 12:43:30;;;;;;;9.40;4.30;;;;;;;;;;4979979;28;20905;-44
2023/03/29 12:46:00;;;;;;;4.60;3.50;;;;;;;;;;4980834;28;20512;-44
2023/03/29 12:48:29;;;;;;;7.50;4.00;;;;;;;;;;4981754;28;20434;-47
2023/03/29 12:50:59;;;;;;;6.40;4.17;;;;;;;;;;4983197;28;20421;-46
2023/03/29 12:53:25;;;;;;;6.80;4.73;;;;;;;;;;4977661;28;20960;-46
2023/03/29 12:56:14;;;;;;;6.10;4.00;;;;;;;;;;4982865;28;20423;-46
2023/03/29 12:58:49;;;;;;;8.83;5.00;;;;;;;;;;4965021;28;20469;-44
2023/03/29 13:01:29;;;;;;;10.80;5.47;;;;;;;;;;4985818;28;20378;-45
2023/03/29 13:03:56;;;;;;;7.47;4.67;;;;;;;;;;4972714;28;20435;-43
2023/03/29 13:06:41;;;;;;;6.67;5.10;;;;;;;;;;4971673;28;20430;-43
2023/03/29 13:09:29;;;;;;;7.77;3.90;;;;;;;;;;4970652;28;20583;-44
2023/03/29 13:12:06;;;;;;;6.97;4.20;;;;;;;;;;4954296;28;20402;-44
2023/03/29 13:14:36;;;;;;;8.03;4.73;;;;;;;;;;4971378;28;20945;-45
2023/03/29 13:17:06;;;;;;;5.57;4.10;;;;;;;;;;4972693;28;20474;-45
2023/03/29 13:19:47;;;;;;;7.83;4.40;;;;;;;;;;4971800;28;20454;-44
2023/03/29 13:22:34;;;;;;;5.53;4.60;;;;;;;;;;4969867;28;20803;-45
2023/03/29 13:25:09;;;;;;;9.20;6.90;;;;;;;;;;4971933;28;20489;-45
2023/03/29 13:27:44;;;;;;;7.63;5.07;;;;;;;;;;4971376;28;20831;-44
2023/03/29 13:30:16;;;;;;;6.27;5.13;;;;;;;;;;4971567;28;20479;-45
2023/03/29 13:33:05;;;;;;;8.20;5.33;;;;;;;;;;4970744;28;20451;-46
2023/03/29 13:35:49;;;;;;;12.83;5.07;;;;;;;;;;4959083;28;20416;-44
2023/03/29 13:38:26;;;;;;;7.17;6.23;;;;;;;;;;4969733;28;20447;-44
2023/03/29 13:40:52;;;;;;;6.10;5.50;;;;;;;;;;4971029;28;20399;-45
2023/03/29 13:43:18;;;;;;;7.57;4.90;;;;;;;;;;4970528;28;20494;-44
2023/03/29 13:45:45;;;;;;;6.57;4.80;;;;;;;;;;4972908;28;20849;-45
2023/03/29 13:48:32;;;;;;;4.73;3.97;;;;;;;;;;4971831;28;20428;-44
2023/03/29 13:51:07;;;;;;;8.70;4.93;;;;;;;;;;4971860;28;20515;-45
2023/03/29 13:53:53;;;;;;;5.67;4.60;;;;;;;;;;4983379;28;20410;-45
2023/03/29 13:56:24;;;;;;;6.50;4.07;;;;;;;;;;4977670;28;20928;-44
2023/03/29 13:58:55;;;;;;;6.67;4.47;;;;;;;;;;4983784;28;20446;-45
2023/03/29 14:01:27;;;;;;;8.20;4.97;;;;;;;;;;4970235;28;20432;-44
2023/03/29 14:03:53;;;;;;;6.00;4.50;;;;;;;;;;4984147;28;20935;-44
2023/03/29 14:06:25;;;;;;;6.20;4.70;;;;;;;;;;4978634;28;20406;-44
2023/03/29 14:08:53;;;;;;;8.03;5.37;;;;;;;;;;4978988;28;20472;-44
2023/03/29 14:11:19;;;;;;;6.70;4.80;;;;;;;;;;4986975;28;20918;-44
2023/03/29 14:13:46;;;;;;;5.33;4.77;;;;;;;;;;4980723;28;20384;-44
2023/03/29 14:16:12;;;;;;;5.43;4.40;;;;;;;;;;4984268;28;20438;-45
2023/03/29 14:18:43;;;;;;;7.43;5.20;;;;;;;;;;4978778;28;20537;-45
2023/03/29 14:21:11;;;;;;;6.03;4.47;;;;;;;;;;4983300;28;20909;-46
2023/03/29 14:23:40;;;;;;;6.43;4.13;;;;;;;;;;4979936;28;20443;-47
2023/03/29 14:26:14;;;;;;;7.50;4.53;;;;;;;;;;4982135;28;20475;-44
2023/03/29 14:28:44;;;;;;;6.37;4.60;;;;;;;;;;4981907;28;20466;-45
2023/03/29 14:31:16;;;;;;;7.27;4.77;;;;;;;;;;4979252;28;20453;-45
2023/03/29 14:33:42;;;;;;;4.77;4.03;;;;;;;;;;4981162;28;20425;-46
2023/03/29 14:36:12;;;;;;;5.70;4.50;;;;;;;;;;4982174;28;20385;-45
2023/03/29 14:38:39;;;;;;;7.00;4.40;;;;;;;;;;4984704;28;20968;-45
2023/03/29 14:41:06;;;;;;;4.57;4.00;;;;;;;;;;4982449;28;20458;-45
2023/03/29 14:43:32;;;;;;;3.80;3.33;;;;;;;;;;4983439;28;20435;-45
2023/03/29 14:46:00;;;;;;;6.80;3.60;;;;;;;;;;4982384;28;20765;-44
2023/03/29 14:48:26;;;;;;;6.47;3.70;;;;;;;;;;4975860;28;20422;-45
2023/03/29 14:50:52;;;;;;;7.20;3.60;;;;;;;;;;4979211;28;20455;-44
2023/03/29 14:53:23;;;;;;;5.30;4.20;;;;;;;;;;4980762;28;20427;-44